Wetterdaten: aktuell Freitag, 04.09.2026 16:42
Datum Zeit Temp. A. Feuchte A. Luftdruck Regen Wind Richtung Richtung Taupunkt Windchill
04.09.2026 16:42 30,5 °C 22 % 1003,6 hPa 0,0 l/m² 11,1 km/h (2 Bft) NW±45° 305 ° 6,4 °C 30,2 °C
04.09.2026 16:40 30,5 °C 22 % 1003,6 hPa 0,0 l/m² 11,1 km/h (2 Bft) NW±45° 305 ° 6,4 °C 30,2 °C
04.09.2026 16:39 30,5 °C 22 % 1003,6 hPa 0,0 l/m² 13,3 km/h (3 Bft) N-NW±22.5° 335 ° 6,4 °C 30,1 °C
04.09.2026 16:37 30,5 °C 22 % 1003,6 hPa 0,0 l/m² 24,3 km/h (4 Bft) W 280 ° 6,4 °C 29,6 °C
04.09.2026 16:35 30,7 °C 23 % 1003,5 hPa 0,0 l/m² 10,5 km/h (2 Bft) W-NW±67.5° 295 ° 7,2 °C 30,4 °C
04.09.2026 16:33 30,7 °C 23 % 1003,5 hPa 0,0 l/m² 10,5 km/h (2 Bft) W-NW±67.5° 295 ° 7,2 °C 30,4 °C
04.09.2026 16:31 30,7 °C 23 % 1003,5 hPa 0,0 l/m² 3,3 km/h (1 Bft) NW±45° 315 ° 7,2 °C 30,7 °C
04.09.2026 16:29 30,6 °C 23 % 1003,6 hPa 0,0 l/m² 12,0 km/h (2 Bft) N-NW±67.5° 330 ° 7,1 °C 30,2 °C
04.09.2026 16:27 30,6 °C 23 % 1003,6 hPa 0,0 l/m² 7,6 km/h (2 Bft) N-NW±67.5° 330 ° 7,1 °C 30,5 °C
04.09.2026 16:25 30,6 °C 23 % 1003,6 hPa 0,0 l/m² 7,6 km/h (2 Bft) N-NW±67.5° 330 ° 7,1 °C 30,5 °C
04.09.2026 16:23 30,5 °C 23 % 1003,6 hPa 0,0 l/m² 9,0 km/h (2 Bft) NW±67.5° 315 ° 7,0 °C 30,3 °C
04.09.2026 16:21 30,4 °C 23 % 1003,6 hPa 0,0 l/m² 4,0 km/h (1 Bft) N±67.5° 360 ° 6,9 °C 30,4 °C
04.09.2026 16:19 30,4 °C 23 % 1003,6 hPa 0,0 l/m² 4,0 km/h (1 Bft) N±67.5° 360 ° 6,9 °C 30,4 °C
04.09.2026 16:17 30,5 °C 23 % 1003,6 hPa 0,0 l/m² 14,9 km/h (3 Bft) N±22.5° 5 ° 7,0 °C 30,0 °C
04.09.2026 16:15 30,5 °C 23 % 1003,6 hPa 0,0 l/m² 10,8 km/h (2 Bft) N 350 ° 7,0 °C 30,2 °C
04.09.2026 16:13 30,5 °C 23 % 1003,6 hPa 0,0 l/m² 18,3 km/h (3 Bft) N-NW±45° 335 ° 7,0 °C 29,8 °C
04.09.2026 16:11 30,5 °C 23 % 1003,6 hPa 0,0 l/m² 18,3 km/h (3 Bft) N-NW±45° 335 ° 7,0 °C 29,8 °C
04.09.2026 16:08 30,4 °C 23 % 1003,6 hPa 0,0 l/m² 9,0 km/h (2 Bft) N±67.5° 5 ° 6,9 °C 30,2 °C
04.09.2026 16:06 30,4 °C 23 % 1003,6 hPa 0,0 l/m² 19,3 km/h (3 Bft) O-SO 105 ° 6,9 °C 29,7 °C
04.09.2026 16:04 30,4 °C 24 % 1003,6 hPa 0,0 l/m² 14,8 km/h (3 Bft) NO 35 ° 7,5 °C 29,9 °C
04.09.2026 16:02 30,3 °C 24 % 1003,6 hPa 0,0 l/m² 14,8 km/h (3 Bft) NO 35 ° 7,5 °C 29,7 °C
04.09.2026 16:00 30,3 °C 24 % 1003,6 hPa 0,0 l/m² 19,8 km/h (3 Bft) O±22.5° 85 ° 7,5 °C 29,5 °C
04.09.2026 15:58 30,2 °C 24 % 1003,6 hPa 0,0 l/m² 18,3 km/h (3 Bft) NO±22.5° 45 ° 7,4 °C 29,5 °C
04.09.2026 15:56 30,1 °C 25 % 1004,6 hPa 0,0 l/m² 18,3 km/h (3 Bft) NO±22.5° 45 ° 7,9 °C 29,3 °C
04.09.2026 15:55 30,1 °C 25 % 1004,6 hPa 0,0 l/m² 10,7 km/h (2 Bft) O-NO 70 ° 7,9 °C 29,7 °C
04.09.2026 15:53 30,0 °C 27 % 1003,6 hPa 0,0 l/m² 6,8 km/h (2 Bft) SO±22.5° 145 ° 8,9 °C 30,0 °C
04.09.2026 15:51 29,8 °C 27 % 1003,6 hPa 0,0 l/m² 7,6 km/h (2 Bft) O-NO±67.5° 65 ° 8,8 °C 29,7 °C
04.09.2026 15:49 29,8 °C 27 % 1003,6 hPa 0,0 l/m² 7,6 km/h (2 Bft) O-NO±67.5° 65 ° 8,8 °C 29,7 °C
04.09.2026 15:47 29,8 °C 27 % 1003,6 hPa 0,0 l/m² 6,3 km/h (2 Bft) NO±67.5° 45 ° 8,8 °C 29,8 °C
04.09.2026 15:45 29,8 °C 27 % 1004,6 hPa 0,0 l/m² 4,5 km/h (1 Bft) NO±67.5° 55 ° 8,8 °C 29,8 °C
04.09.2026 15:43 29,8 °C 27 % 1004,6 hPa 0,0 l/m² 4,5 km/h (1 Bft) NO±67.5° 55 ° 8,8 °C 29,8 °C
04.09.2026 15:41 29,8 °C 27 % 1004,6 hPa 0,0 l/m² 6,3 km/h (2 Bft) NO±67.5° 35 ° 8,8 °C 29,8 °C
04.09.2026 15:39 29,8 °C 27 % 1004,6 hPa 0,0 l/m² 5,4 km/h (1 Bft) N-NW±67.5° 335 ° 8,8 °C 29,8 °C
04.09.2026 15:37 29,9 °C 27 % 1004,6 hPa 0,0 l/m² 6,2 km/h (2 Bft) O-NO±22.5° 60 ° 8,9 °C 29,9 °C
04.09.2026 15:35 29,9 °C 27 % 1004,6 hPa 0,0 l/m² 6,2 km/h (2 Bft) O-NO±22.5° 60 ° 8,9 °C 29,9 °C
04.09.2026 15:33 29,9 °C 28 % 1004,6 hPa 0,0 l/m² 13,9 km/h (3 Bft) O-SO±67.5° 105 ° 9,4 °C 29,3 °C
04.09.2026 15:31 29,8 °C 29 % 1004,6 hPa 0,0 l/m² 6,6 km/h (2 Bft) SO±22.5° 135 ° 9,8 °C 29,8 °C
04.09.2026 15:28 29,8 °C 29 % 1004,6 hPa 0,0 l/m² 18,9 km/h (3 Bft) SO±45° 145 ° 9,8 °C 28,9 °C
04.09.2026 15:26 29,8 °C 28 % 1004,6 hPa 0,0 l/m² 18,9 km/h (3 Bft) SO±45° 145 ° 9,3 °C 28,9 °C
04.09.2026 15:24 29,7 °C 29 % 1004,6 hPa 0,0 l/m² 12,9 km/h (3 Bft) SO±67.5° 145 ° 9,7 °C 29,1 °C
04.09.2026 15:22 29,7 °C 29 % 1004,6 hPa 0,0 l/m² 12,9 km/h (3 Bft) SO±67.5° 145 ° 9,7 °C 29,1 °C
_ Min-Zeit 04:29 16:37 16:31 - 00:00 - - 16:37 05:38
Minimum _ 19,8 °C 22 % 1003,5 hPa - 0,0 km/h (0 Bft) - - 6,4 °C 19,4 °C
_ Max-Zeit 16:31 08:01 01:53 00:00 14:46 - - 08:32 16:31
Maximum _ 30,7 °C 67 % 1012,1 hPa 0,0 l/m² 30,3 km/h
O-SO (5 Bft)
- - 14,7 °C 30,7 °C
Durchschnitt _ 23,7 °C 51 % 1008,7 hPa #0,0 l/m² 5,2 km/h (1 Bft) SO - 12,0 °C 23,4 °C